Terminal Aerodrome Forecast
Issued by NWS Buffalo, NY

Home | Current Version | Previous Version | Text Only | Print | Product List | Glossary On
Versions: 1 2 3 4 5 6 7 8 9 10 11 12 13 14 15 16 17 18 19 20 21 22 23 24 25 26 27
000
FTUS41 KBUF 292300
TAFART
TAF
KART 292320Z 3000/3024 17010KT P6SM SCT200
     FM300400 18018G25KT P6SM BKN120
     FM300600 20016G23KT 2SM -SHSN OVC025
     FM301600 24020G29KT 2SM -SHSN OVC015
     FM302200 25017G25KT 4SM BR VCSH OVC020=

USA.gov is the U.S. government's official web portal to all federal, state and local government web resources and services.